Time;durP1;ratioP1;P1;durP2;ratioP2;P2;SDS_P1;SDS_P2;PMS_P1;PMS_P2;Temp;Humidity;BMP_temperature;BMP_pressure;BME280_temperature;BME280_humidity;BME280_pressure;Samples;Min_cycle;Max_cycle;Signal;HPM_P1;HPM_P2
2023/08/25 00:00:12;;;;;;;;;;;20.10;99.90;;;;;;5096115;23;19996;-74
2023/08/25 00:02:39;;;;;;;;;;;20.10;99.90;;;;;;5059045;28;19991;-74
2023/08/25 00:05:24;;;;;;;;;;;20.10;99.90;;;;;;5042394;28;20282;-74
2023/08/25 00:07:50;;;;;;;;;;;20.10;99.90;;;;;;5043690;28;19993;-74
2023/08/25 00:10:17;;;;;;;;;;;20.10;99.90;;;;;;5062536;28;19956;-74
2023/08/25 00:12:44;;;;;;;;;;;20.00;99.90;;;;;;5063710;28;19921;-74
2023/08/25 00:15:12;;;;;;;;;;;20.00;99.90;;;;;;5063703;28;20235;-74
2023/08/25 00:17:39;;;;;;;;;;;20.10;99.90;;;;;;5063663;28;19987;-74
2023/08/25 00:20:09;;;;;;;;;;;20.10;99.90;;;;;;5063787;28;19925;-74
2023/08/25 00:22:35;;;;;;;;;;;20.00;99.90;;;;;;5063890;28;19925;-75
2023/08/25 00:25:03;;;;;;;;;;;20.00;99.90;;;;;;5063835;28;20167;-74
2023/08/25 00:27:29;;;;;;;;;;;20.10;99.90;;;;;;5063434;28;19928;-74
2023/08/25 00:29:56;;;;;;;;;;;20.00;99.90;;;;;;5063356;28;19922;-75
2023/08/25 00:32:24;;;;;;;;;;;20.10;99.90;;;;;;5063444;28;19920;-74
2023/08/25 00:34:50;;;;;;;;;;;20.00;99.90;;;;;;5063739;28;19953;-74
2023/08/25 00:37:17;;;;;;;;;;;20.00;99.90;;;;;;5063542;28;19983;-73
2023/08/25 00:39:44;;;;;;;;;;;20.10;99.90;;;;;;5067913;28;19984;-75
2023/08/25 00:42:10;;;;;;;;;;;20.00;99.90;;;;;;5083509;28;19955;-74
2023/08/25 00:44:37;;;;;;;;;;;20.00;99.90;;;;;;5086558;28;19921;-73
2023/08/25 00:47:04;;;;;;;;;;;20.00;99.90;;;;;;5087464;28;19943;-74
2023/08/25 00:49:32;;;;;;;;;;;20.00;99.90;;;;;;5087071;28;19920;-74
2023/08/25 00:51:59;;;;;;;;;;;20.10;99.90;;;;;;5087526;28;19984;-74
2023/08/25 00:54:28;;;;;;;;;;;20.00;99.90;;;;;;5087382;28;19952;-75
2023/08/25 00:56:54;;;;;;;;;;;20.00;99.90;;;;;;5087263;28;19987;-74
2023/08/25 00:59:21;;;;;;;;;;;20.00;99.90;;;;;;5086783;28;20235;-74
2023/08/25 01:01:48;;;;;;;;;;;20.00;99.90;;;;;;5087158;28;19992;-74
2023/08/25 01:04:14;;;;;;;;;;;20.00;99.90;;;;;;5080336;28;20140;-74
2023/08/25 01:06:42;;;;;;;;;;;20.00;99.90;;;;;;5087384;28;19987;-74
2023/08/25 01:09:10;;;;;;;;;;;20.00;99.90;;;;;;5087135;28;19927;-74
2023/08/25 01:11:41;;;;;;;;;;;20.00;99.90;;;;;;5086961;28;20306;-74
2023/08/25 01:14:11;;;;;;;;;;;20.00;99.90;;;;;;5068840;28;19955;-73
2023/08/25 01:16:41;;;;;;;;;;;20.00;99.90;;;;;;5066769;28;19921;-74
2023/08/25 01:19:12;;;;;;;;;;;20.00;99.90;;;;;;5066598;28;20176;-74
2023/08/25 01:21:41;;;;;;;;;;;19.90;99.90;;;;;;5066935;28;20172;-74
2023/08/25 01:24:13;;;;;;;;;;;19.90;99.90;;;;;;5066655;28;20174;-75
2023/08/25 01:26:41;;;;;;;;;;;19.90;99.90;;;;;;5066573;28;19956;-74
2023/08/25 01:29:08;;;;;;;;;;;19.90;99.90;;;;;;5066721;28;19988;-74
2023/08/25 01:31:34;;;;;;;;;;;19.90;99.90;;;;;;5066968;28;20166;-74
2023/08/25 01:34:01;;;;;;;;;;;19.80;99.90;;;;;;5066879;28;19927;-74
2023/08/25 01:36:33;;;;;;;;;;;19.80;99.90;;;;;;5066759;28;19924;-74
2023/08/25 01:39:03;;;;;;;;;;;19.80;99.90;;;;;;5066268;28;19921;-73
2023/08/25 01:41:31;;;;;;;;;;;19.80;99.90;;;;;;5066432;28;20200;-74
2023/08/25 01:44:01;;;;;;;;;;;19.70;99.90;;;;;;5066659;28;19984;-73
2023/08/25 01:46:28;;;;;;;;;;;19.80;99.90;;;;;;5066603;28;19927;-74
2023/08/25 01:48:56;;;;;;;;;;;19.70;99.90;;;;;;5065999;28;19956;-73
2023/08/25 01:51:22;;;;;;;;;;;19.70;99.90;;;;;;5066534;28;19967;-74
2023/08/25 01:53:53;;;;;;;;;;;19.70;99.90;;;;;;5066481;28;19921;-73
2023/08/25 01:56:19;;;;;;;;;;;19.70;99.90;;;;;;5064921;28;19921;-75
2023/08/25 01:58:46;;;;;;;;;;;19.70;99.90;;;;;;5065869;28;19925;-73
2023/08/25 02:01:14;;;;;;;;;;;19.70;99.90;;;;;;5066366;28;19984;-74
2023/08/25 02:03:41;;;;;;;;;;;19.70;99.90;;;;;;5080791;28;19956;-74
2023/08/25 02:06:19;;;;;;;;;;;19.70;99.90;;;;;;5085227;28;19952;-74
2023/08/25 02:08:46;;;;;;;;;;;19.70;99.90;;;;;;5086003;28;19987;-74
2023/08/25 02:11:13;;;;;;;;;;;19.70;99.90;;;;;;5086306;28;19979;-74
2023/08/25 02:13:39;;;;;;;;;;;19.60;99.90;;;;;;5074053;28;19987;-75
2023/08/25 02:16:07;;;;;;;;;;;19.60;99.90;;;;;;5066045;28;19931;-74
2023/08/25 02:18:35;;;;;;;;;;;19.60;99.90;;;;;;5065723;28;20022;-74
2023/08/25 02:21:02;;;;;;;;;;;19.60;99.90;;;;;;5066054;28;19968;-74
2023/08/25 02:23:28;;;;;;;;;;;19.60;99.90;;;;;;5065670;28;20255;-74
2023/08/25 02:25:55;;;;;;;;;;;19.60;99.90;;;;;;5065898;28;19959;-73
2023/08/25 02:28:22;;;;;;;;;;;19.60;99.90;;;;;;5065232;28;20256;-74
2023/08/25 02:30:48;;;;;;;;;;;19.50;99.90;;;;;;5065520;28;19925;-74
2023/08/25 02:33:15;;;;;;;;;;;19.50;99.90;;;;;;5084743;28;19951;-74
2023/08/25 02:35:43;;;;;;;;;;;19.50;99.90;;;;;;5085784;28;19963;-74
2023/08/25 02:38:11;;;;;;;;;;;19.50;99.90;;;;;;5085382;28;19956;-74
2023/08/25 02:40:38;;;;;;;;;;;19.50;99.90;;;;;;5085461;28;19943;-74
2023/08/25 02:43:06;;;;;;;;;;;19.40;99.90;;;;;;5085348;28;19927;-74
2023/08/25 02:45:33;;;;;;;;;;;19.50;99.90;;;;;;5085489;28;19963;-74
2023/08/25 02:47:59;;;;;;;;;;;19.50;99.90;;;;;;5085368;28;19983;-74
2023/08/25 02:50:26;;;;;;;;;;;19.40;99.90;;;;;;5085157;28;19920;-75
2023/08/25 02:52:54;;;;;;;;;;;19.40;99.90;;;;;;5085388;28;19921;-74
2023/08/25 02:55:22;;;;;;;;;;;19.40;99.90;;;;;;5080165;28;19920;-74
2023/08/25 02:57:49;;;;;;;;;;;19.40;99.90;;;;;;5065090;28;19928;-74
2023/08/25 03:00:16;;;;;;;;;;;19.40;99.90;;;;;;5075432;28;19958;-74
2023/08/25 03:02:43;;;;;;;;;;;19.40;99.90;;;;;;5084833;28;19956;-74
2023/08/25 03:08:35;;;;;;;;;;;19.30;99.90;;;;;;5084393;28;19915;-74
2023/08/25 03:11:03;;;;;;;;;;;19.30;99.90;;;;;;5084742;28;19952;-74
2023/08/25 03:13:30;;;;;;;;;;;19.30;99.90;;;;;;5084750;28;19920;-73
2023/08/25 03:15:59;;;;;;;;;;;19.30;99.90;;;;;;5084677;28;19952;-73
2023/08/25 03:18:26;;;;;;;;;;;19.30;99.90;;;;;;5069841;28;19928;-73
2023/08/25 03:20:53;;;;;;;;;;;19.30;99.90;;;;;;5077155;28;19920;-74
2023/08/25 03:23:19;;;;;;;;;;;19.30;99.90;;;;;;5084857;28;19952;-74
2023/08/25 03:25:46;;;;;;;;;;;19.30;99.90;;;;;;5084402;28;20267;-74
2023/08/25 03:28:14;;;;;;;;;;;19.20;99.90;;;;;;5084420;28;19987;-74
2023/08/25 03:30:41;;;;;;;;;;;19.30;99.90;;;;;;5084658;28;19948;-74
2023/08/25 03:33:07;;;;;;;;;;;19.20;99.90;;;;;;5084312;28;20055;-74
2023/08/25 03:35:34;;;;;;;;;;;19.20;99.90;;;;;;5084547;28;20003;-74
2023/08/25 03:38:01;;;;;;;;;;;19.30;99.90;;;;;;5084026;28;19921;-74
2023/08/25 03:40:28;;;;;;;;;;;19.30;99.90;;;;;;5084270;28;19920;-74
2023/08/25 03:42:54;;;;;;;;;;;19.20;99.90;;;;;;5084199;28;19955;-74
2023/08/25 03:45:22;;;;;;;;;;;19.20;99.90;;;;;;5084415;28;19956;-74
2023/08/25 03:47:49;;;;;;;;;;;19.20;99.90;;;;;;5084187;28;19958;-73
2023/08/25 03:50:16;;;;;;;;;;;19.20;99.90;;;;;;5083981;28;20171;-74
2023/08/25 03:52:42;;;;;;;;;;;19.20;99.90;;;;;;5084018;28;19952;-74
2023/08/25 03:55:09;;;;;;;;;;;19.20;99.90;;;;;;5080781;28;19955;-73
2023/08/25 03:57:36;;;;;;;;;;;19.20;99.90;;;;;;5064034;28;20112;-74
2023/08/25 04:00:03;;;;;;;;;;;19.20;99.90;;;;;;5063877;28;19927;-74
2023/08/25 04:02:31;;;;;;;;;;;19.20;99.90;;;;;;5067120;28;20231;-74
2023/08/25 04:04:58;;;;;;;;;;;19.20;99.90;;;;;;5083840;28;19952;-73
2023/08/25 04:07:24;;;;;;;;;;;19.20;99.90;;;;;;5083969;28;19987;-74
2023/08/25 04:09:51;;;;;;;;;;;19.20;99.90;;;;;;5084109;28;20127;-73
2023/08/25 04:12:18;;;;;;;;;;;19.20;99.90;;;;;;5084136;28;19931;-74
2023/08/25 04:14:46;;;;;;;;;;;19.20;99.90;;;;;;5083771;28;20259;-73
2023/08/25 04:17:12;;;;;;;;;;;19.20;99.90;;;;;;5083775;28;19921;-74
2023/08/25 04:19:40;;;;;;;;;;;19.20;99.90;;;;;;5083220;28;19920;-74
2023/08/25 04:22:07;;;;;;;;;;;19.20;99.90;;;;;;5083765;28;20271;-74
2023/08/25 04:24:33;;;;;;;;;;;19.10;99.90;;;;;;5083643;28;20246;-76
2023/08/25 04:27:00;;;;;;;;;;;19.10;99.90;;;;;;5083968;28;19926;-74
2023/08/25 04:29:27;;;;;;;;;;;19.10;99.90;;;;;;5083515;28;19927;-74
2023/08/25 04:31:53;;;;;;;;;;;19.10;99.90;;;;;;5083820;28;20183;-74
2023/08/25 04:34:20;;;;;;;;;;;19.10;99.90;;;;;;5083229;28;19920;-74
2023/08/25 04:36:48;;;;;;;;;;;19.10;99.90;;;;;;5082924;28;19959;-74
2023/08/25 04:39:14;;;;;;;;;;;19.10;99.90;;;;;;5077257;28;19979;-74
2023/08/25 04:41:41;;;;;;;;;;;19.10;99.90;;;;;;5083575;28;19991;-75
2023/08/25 04:44:10;;;;;;;;;;;19.10;99.90;;;;;;5083265;28;19920;-73
2023/08/25 04:46:37;;;;;;;;;;;19.00;99.90;;;;;;5083003;28;19927;-74
2023/08/25 04:49:04;;;;;;;;;;;19.10;99.90;;;;;;5068575;28;19921;-74
2023/08/25 04:51:30;;;;;;;;;;;19.00;99.90;;;;;;5063581;28;19975;-74
2023/08/25 04:53:58;;;;;;;;;;;19.10;99.90;;;;;;5082431;28;19920;-74
2023/08/25 04:56:25;;;;;;;;;;;19.10;99.90;;;;;;5082178;28;19956;-74
2023/08/25 04:58:51;;;;;;;;;;;19.10;99.90;;;;;;5083175;28;20172;-74
2023/08/25 05:01:18;;;;;;;;;;;19.10;99.90;;;;;;5082406;28;19921;-74
2023/08/25 05:03:45;;;;;;;;;;;19.10;99.90;;;;;;5081595;28;19984;-74
2023/08/25 05:06:11;;;;;;;;;;;19.10;99.90;;;;;;5083049;28;19927;-74
2023/08/25 05:08:38;;;;;;;;;;;19.10;99.90;;;;;;5083166;28;19983;-74
2023/08/25 05:11:07;;;;;;;;;;;19.10;99.90;;;;;;5083515;28;19943;-74
2023/08/25 05:13:33;;;;;;;;;;;19.10;99.90;;;;;;5083070;28;20234;-75
2023/08/25 05:16:00;;;;;;;;;;;19.10;99.90;;;;;;5083262;28;19956;-74
2023/08/25 05:18:27;;;;;;;;;;;19.10;99.90;;;;;;5082166;28;19956;-71
2023/08/25 05:20:58;;;;;;;;;;;19.20;99.90;;;;;;5069731;28;19929;-73
2023/08/25 05:23:24;;;;;;;;;;;19.20;99.90;;;;;;5063355;28;19964;-74
2023/08/25 05:25:51;;;;;;;;;;;19.20;99.90;;;;;;5062859;28;19984;-71
2023/08/25 05:28:19;;;;;;;;;;;19.20;99.90;;;;;;5062956;28;19921;-74
2023/08/25 05:30:46;;;;;;;;;;;19.20;99.90;;;;;;5066059;28;19971;-74
2023/08/25 05:33:12;;;;;;;;;;;19.20;99.90;;;;;;5066679;28;19952;-74
2023/08/25 05:35:39;;;;;;;;;;;19.30;99.90;;;;;;5066502;28;19980;-71
2023/08/25 05:38:06;;;;;;;;;;;19.30;99.90;;;;;;5066487;28;19924;-72
2023/08/25 05:40:33;;;;;;;;;;;19.30;99.90;;;;;;5077942;28;19942;-72
2023/08/25 05:42:59;;;;;;;;;;;19.30;99.90;;;;;;5086745;28;19920;-72
2023/08/25 05:45:27;;;;;;;;;;;19.30;99.90;;;;;;5086350;28;20266;-73
2023/08/25 05:47:54;;;;;;;;;;;19.30;99.90;;;;;;5086398;28;19992;-73
2023/08/25 05:50:26;;;;;;;;;;;19.30;99.90;;;;;;5085807;28;19921;-73
2023/08/25 05:55:57;;;;;;;;;;;19.40;99.90;;;;;;5086210;28;19969;-73
2023/08/25 05:58:23;;;;;;;;;;;19.50;99.90;;;;;;5065993;28;19921;-73
2023/08/25 06:00:51;;;;;;;;;;;19.50;99.90;;;;;;5066350;28;20089;-73
2023/08/25 06:03:18;;;;;;;;;;;19.60;99.90;;;;;;5075958;28;20182;-73
2023/08/25 06:05:46;;;;;;;;;;;19.60;99.90;;;;;;5086352;28;19982;-73
2023/08/25 06:08:14;;;;;;;;;;;19.70;99.90;;;;;;5086073;28;19927;-73
2023/08/25 06:10:40;;;;;;;;;;;19.80;99.90;;;;;;5086233;28;19983;-73
2023/08/25 06:13:07;;;;;;;;;;;19.90;99.90;;;;;;5085970;28;19921;-73
2023/08/25 06:15:33;;;;;;;;;;;19.90;99.90;;;;;;5086207;28;19963;-73
2023/08/25 06:18:01;;;;;;;;;;;20.00;99.90;;;;;;5080151;28;19984;-73
2023/08/25 06:20:28;;;;;;;;;;;20.00;99.90;;;;;;5065896;28;19921;-73
2023/08/25 06:22:55;;;;;;;;;;;20.10;99.90;;;;;;5065942;28;19925;-73
2023/08/25 06:25:22;;;;;;;;;;;20.20;99.90;;;;;;5065651;28;20240;-72
2023/08/25 06:27:48;;;;;;;;;;;20.20;99.90;;;;;;5065710;28;19929;-74
2023/08/25 06:30:16;;;;;;;;;;;20.20;99.90;;;;;;5065508;28;19988;-73
2023/08/25 06:32:42;;;;;;;;;;;20.30;99.90;;;;;;5065748;28;19927;-73
2023/08/25 06:35:11;;;;;;;;;;;20.40;99.90;;;;;;5065607;28;19988;-73
2023/08/25 06:37:38;;;;;;;;;;;20.50;99.90;;;;;;5065261;28;19921;-74
2023/08/25 06:40:05;;;;;;;;;;;20.50;99.90;;;;;;5080472;28;20219;-73
2023/08/25 06:42:32;;;;;;;;;;;20.60;99.90;;;;;;5084864;28;19920;-74
2023/08/25 06:44:58;;;;;;;;;;;20.70;99.90;;;;;;5085626;28;19920;-73
2023/08/25 06:47:25;;;;;;;;;;;20.80;99.90;;;;;;5085290;28;19920;-73
2023/08/25 06:50:07;;;;;;;;;;;20.90;99.90;;;;;;5084059;28;20208;-73
2023/08/25 06:52:36;;;;;;;;;;;21.00;99.90;;;;;;5085221;28;19921;-73
2023/08/25 06:55:03;;;;;;;;;;;21.10;99.90;;;;;;5082559;28;19927;-73
2023/08/25 06:57:30;;;;;;;;;;;21.20;99.90;;;;;;5064999;28;19921;-73
2023/08/25 06:59:57;;;;;;;;;;;21.30;99.90;;;;;;5064782;28;20101;-72
2023/08/25 07:02:23;;;;;;;;;;;21.40;99.90;;;;;;5065001;28;19924;-73
2023/08/25 07:04:50;;;;;;;;;;;21.50;99.90;;;;;;5065134;28;19956;-73
2023/08/25 07:07:24;;;;;;;;;;;21.60;99.90;;;;;;5064601;28;20276;-74
2023/08/25 07:10:07;;;;;;;;;;;21.70;99.90;;;;;;5063998;28;20179;-73
2023/08/25 07:12:34;;;;;;;;;;;21.70;99.90;;;;;;5065075;28;19988;-73
2023/08/25 07:15:01;;;;;;;;;;;21.70;99.90;;;;;;5064741;28;20208;-73
2023/08/25 07:17:29;;;;;;;;;;;21.70;99.90;;;;;;5071559;28;19920;-73
2023/08/25 07:20:00;;;;;;;;;;;21.60;99.90;;;;;;5083660;28;19966;-73
2023/08/25 07:22:26;;;;;;;;;;;21.60;99.90;;;;;;5084394;28;19928;-73
2023/08/25 07:24:54;;;;;;;;;;;21.60;99.90;;;;;;5084387;28;20263;-73
2023/08/25 07:27:21;;;;;;;;;;;21.50;99.90;;;;;;5084659;28;19920;-73
2023/08/25 07:29:48;;;;;;;;;;;21.50;99.90;;;;;;5084512;28;19988;-73
2023/08/25 07:32:15;;;;;;;;;;;21.40;99.90;;;;;;5084552;28;19956;-73
2023/08/25 07:34:43;;;;;;;;;;;21.30;99.90;;;;;;5084644;28;19920;-74
2023/08/25 07:37:10;;;;;;;;;;;21.30;99.90;;;;;;5084248;28;19952;-72
2023/08/25 07:39:36;;;;;;;;;;;21.30;99.90;;;;;;5084211;28;19989;-73
2023/08/25 07:42:03;;;;;;;;;;;21.30;99.90;;;;;;5084292;28;19970;-74
2023/08/25 07:44:31;;;;;;;;;;;21.20;99.90;;;;;;5084140;28;20255;-73
2023/08/25 07:46:58;;;;;;;;;;;21.20;99.90;;;;;;5084100;28;19964;-74
2023/08/25 07:49:24;;;;;;;;;;;21.10;99.90;;;;;;5084073;28;19988;-73
2023/08/25 07:51:51;;;;;;;;;;;21.10;99.90;;;;;;5084045;28;20212;-74
2023/08/25 07:54:18;;;;;;;;;;;21.00;99.90;;;;;;5070968;28;19983;-73
2023/08/25 07:56:44;;;;;;;;;;;20.90;99.90;;;;;;5083878;28;20144;-73
2023/08/25 07:59:11;;;;;;;;;;;20.90;99.90;;;;;;5067042;28;19979;-73
2023/08/25 08:01:40;;;;;;;;;;;20.80;99.90;;;;;;5064042;28;19995;-75
2023/08/25 08:04:07;;;;;;;;;;;20.70;99.90;;;;;;5069571;28;19921;-73
2023/08/25 08:06:40;;;;;;;;;;;20.70;99.90;;;;;;5063075;28;19921;-73
2023/08/25 08:09:07;;;;;;;;;;;20.60;99.90;;;;;;5063694;28;19963;-74
2023/08/25 08:11:34;;;;;;;;;;;20.60;99.90;;;;;;5063974;28;19988;-74
2023/08/25 08:14:01;;;;;;;;;;;20.50;99.90;;;;;;5063706;28;20209;-73
2023/08/25 08:16:28;;;;;;;;;;;20.50;99.90;;;;;;5063881;28;19952;-74
2023/08/25 08:18:56;;;;;;;;;;;20.40;99.90;;;;;;5063525;28;19921;-74
2023/08/25 08:21:23;;;;;;;;;;;20.40;99.90;;;;;;5082519;28;19924;-73
2023/08/25 08:23:49;;;;;;;;;;;20.40;99.90;;;;;;5084021;28;19952;-73
2023/08/25 08:26:40;;;;;;;;;;;20.40;99.90;;;;;;5074526;28;21235;-73
2023/08/25 08:29:06;;;;;;;;;;;20.30;99.90;;;;;;5075811;28;19920;-74
2023/08/25 08:31:33;;;;;;;;;;;20.30;99.90;;;;;;5063523;28;20288;-73
2023/08/25 08:34:01;;;;;;;;;;;20.40;99.90;;;;;;5063829;28;19927;-74
2023/08/25 08:36:28;;;;;;;;;;;20.40;99.90;;;;;;5065272;28;19948;-73
2023/08/25 08:38:54;;;;;;;;;;;20.40;99.90;;;;;;5083360;28;19926;-73
2023/08/25 08:41:21;;;;;;;;;;;20.50;99.90;;;;;;5083465;28;19924;-74
2023/08/25 08:43:49;;;;;;;;;;;20.60;99.90;;;;;;5083716;28;20004;-74
2023/08/25 08:46:17;;;;;;;;;;;20.60;99.90;;;;;;5083499;28;19987;-75
2023/08/25 08:48:44;;;;;;;;;;;20.60;99.90;;;;;;5083475;28;19987;-74
2023/08/25 08:51:15;;;;;;;;;;;20.70;99.90;;;;;;5083771;28;20321;-74
2023/08/25 08:53:42;;;;;;;;;;;20.70;99.90;;;;;;5083452;28;20263;-75
2023/08/25 08:56:09;;;;;;;;;;;20.80;99.90;;;;;;5083308;28;19927;-75
2023/08/25 08:58:35;;;;;;;;;;;20.80;99.90;;;;;;5083278;28;19979;-74
2023/08/25 09:01:03;;;;;;;;;;;20.90;99.90;;;;;;5083562;28;19987;-74
2023/08/25 09:03:33;;;;;;;;;;;20.90;99.90;;;;;;5071964;28;19936;-74
2023/08/25 09:06:03;;;;;;;;;;;20.90;99.90;;;;;;5069212;28;20566;-75
2023/08/25 09:08:31;;;;;;;;;;;21.00;99.90;;;;;;5087046;28;20069;-74
2023/08/25 09:11:02;;;;;;;;;;;21.10;99.90;;;;;;5087151;28;19920;-74
2023/08/25 09:13:30;;;;;;;;;;;21.20;99.90;;;;;;5087171;28;20093;-74
2023/08/25 09:15:57;;;;;;;;;;;21.20;99.90;;;;;;5087248;28;19987;-75
2023/08/25 09:18:25;;;;;;;;;;;21.30;99.90;;;;;;5077922;28;19951;-75
2023/08/25 09:20:53;;;;;;;;;;;21.30;99.90;;;;;;5087190;28;19987;-74
2023/08/25 09:23:20;;;;;;;;;;;21.40;99.90;;;;;;5086889;28;19920;-74
2023/08/25 09:25:49;;;;;;;;;;;21.40;99.90;;;;;;5086108;28;19924;-75
2023/08/25 09:28:15;;;;;;;;;;;21.40;99.90;;;;;;5086569;28;19920;-75
2023/08/25 09:30:43;;;;;;;;;;;21.40;99.90;;;;;;5076924;28;19927;-74
2023/08/25 09:33:11;;;;;;;;;;;21.50;99.90;;;;;;5066763;28;19928;-75
2023/08/25 09:35:38;;;;;;;;;;;21.40;99.90;;;;;;5066844;28;19921;-75
2023/08/25 09:38:04;;;;;;;;;;;21.40;99.90;;;;;;5066319;28;19992;-75
2023/08/25 09:40:32;;;;;;;;;;;21.40;99.90;;;;;;5066750;28;19995;-74
2023/08/25 09:43:00;;;;;;;;;;;21.40;99.90;;;;;;5066692;28;19920;-74
2023/08/25 09:45:28;;;;;;;;;;;21.40;99.90;;;;;;5066764;28;19951;-74
2023/08/25 09:47:54;;;;;;;;;;;21.40;99.90;;;;;;5066369;28;19971;-74
2023/08/25 09:50:21;;;;;;;;;;;21.30;99.90;;;;;;5066182;28;19944;-73
2023/08/25 09:52:48;;;;;;;;;;;21.30;99.90;;;;;;5066318;28;20165;-74
2023/08/25 09:55:15;;;;;;;;;;;21.30;99.90;;;;;;5066486;28;19983;-74
2023/08/25 09:57:45;;;;;;;;;;;21.20;99.90;;;;;;5065961;28;19920;-74
2023/08/25 10:00:14;;;;;;;;;;;21.20;99.90;;;;;;5066092;28;19963;-75
2023/08/25 10:02:40;;;;;;;;;;;21.10;99.90;;;;;;5066306;28;19939;-73
2023/08/25 10:05:09;;;;;;;;;;;21.10;99.90;;;;;;5066350;28;19927;-74
2023/08/25 10:07:36;;;;;;;;;;;21.10;99.90;;;;;;5066086;28;19956;-74
2023/08/25 10:10:03;;;;;;;;;;;21.00;99.90;;;;;;5066229;28;19921;-74
2023/08/25 10:12:31;;;;;;;;;;;21.10;99.90;;;;;;5065856;28;19984;-74
2023/08/25 10:14:59;;;;;;;;;;;21.10;99.90;;;;;;5065963;28;19920;-73
2023/08/25 10:17:28;;;;;;;;;;;21.10;99.90;;;;;;5064816;28;19979;-74
2023/08/25 10:19:55;;;;;;;;;;;21.10;99.90;;;;;;5065967;28;19988;-74
2023/08/25 10:22:24;;;;;;;;;;;21.10;99.90;;;;;;5066076;28;19920;-73
2023/08/25 10:24:52;;;;;;;;;;;21.10;99.90;;;;;;5065698;28;20172;-73
2023/08/25 10:30:22;;;;;;;;;;;21.10;99.90;;;;;;5065685;28;19915;-74
2023/08/25 10:32:50;;;;;;;;;;;21.20;99.90;;;;;;5065472;28;20208;-74
2023/08/25 10:35:17;;;;;;;;;;;21.20;99.90;;;;;;5065727;28;19921;-74
2023/08/25 10:37:44;;;;;;;;;;;21.30;99.90;;;;;;5065451;28;19958;-74
2023/08/25 10:40:11;;;;;;;;;;;21.30;99.90;;;;;;5065603;28;19927;-73
2023/08/25 10:42:37;;;;;;;;;;;21.40;99.90;;;;;;5065579;28;20279;-73
2023/08/25 10:45:06;;;;;;;;;;;21.40;99.90;;;;;;5065279;28;19921;-74
2023/08/25 10:47:33;;;;;;;;;;;21.40;99.90;;;;;;5065094;28;20229;-74
2023/08/25 10:50:03;;;;;;;;;;;21.40;99.90;;;;;;5065541;28;19952;-73
2023/08/25 10:52:30;;;;;;;;;;;21.40;99.90;;;;;;5065147;28;20254;-73
2023/08/25 10:54:57;;;;;;;;;;;21.50;99.90;;;;;;5071466;28;19947;-74
2023/08/25 10:57:38;;;;;;;;;;;21.60;99.90;;;;;;5085168;28;19928;-73
2023/08/25 11:00:20;;;;;;;;;;;21.60;99.90;;;;;;5084870;28;20111;-73
2023/08/25 11:02:47;;;;;;;;;;;21.60;99.90;;;;;;5078873;28;19927;-74
2023/08/25 11:05:32;;;;;;;;;;;21.70;99.90;;;;;;5065285;28;19921;-74
2023/08/25 11:08:02;;;;;;;;;;;21.80;99.90;;;;;;5064740;28;19966;-74
2023/08/25 11:10:30;;;;;;;;;;;21.90;99.90;;;;;;5065219;28;19927;-73
2023/08/25 11:12:59;;;;;;;;;;;22.00;99.90;;;;;;5065061;28;19988;-73
2023/08/25 11:15:26;;;;;;;;;;;22.10;99.90;;;;;;5064923;28;19979;-73
2023/08/25 11:17:53;;;;;;;;;;;22.20;99.90;;;;;;5064416;28;19959;-73
2023/08/25 11:20:20;;;;;;;;;;;22.30;99.90;;;;;;5064719;28;19921;-73
2023/08/25 11:22:50;;;;;;;;;;;22.30;99.90;;;;;;5064825;28;19964;-76
2023/08/25 11:25:19;;;;;;;;;;;22.40;99.90;;;;;;5064818;28;19983;-76
2023/08/25 11:27:48;;;;;;;;;;;22.50;99.90;;;;;;5064326;28;19952;-73
2023/08/25 11:30:16;;;;;;;;;;;22.50;99.90;;;;;;5064636;28;20158;-76
2023/08/25 11:32:45;;;;;;;;;;;22.50;99.90;;;;;;5064622;28;19921;-76
2023/08/25 11:35:13;;;;;;;;;;;22.50;99.90;;;;;;5064687;28;19952;-73
2023/08/25 11:37:39;;;;;;;;;;;22.60;99.90;;;;;;5063942;28;20231;-73
2023/08/25 11:40:07;;;;;;;;;;;22.60;99.90;;;;;;5066728;28;19960;-75
2023/08/25 11:42:35;;;;;;;;;;;22.70;99.90;;;;;;5084476;28;19991;-76
2023/08/25 11:45:06;;;;;;;;;;;22.70;99.90;;;;;;5084472;28;19920;-74
2023/08/25 11:47:34;;;;;;;;;;;22.80;99.90;;;;;;5084057;28;19921;-74
2023/08/25 11:50:01;;;;;;;;;;;22.90;99.90;;;;;;5084041;28;19956;-73
2023/08/25 11:53:00;;;;;;;;;;;23.00;99.90;;;;;;5077998;28;19943;-73
2023/08/25 11:55:31;;;;;;;;;;;23.10;99.90;;;;;;5079299;28;19927;-74
2023/08/25 11:57:59;;;;;;;;;;;23.20;99.90;;;;;;5083652;28;19920;-74
2023/08/25 12:00:26;;;;;;;;;;;23.30;99.90;;;;;;5083884;28;19981;-74
2023/08/25 12:03:14;;;;;;;;;;;23.40;99.90;;;;;;5075485;28;19991;-74
2023/08/25 12:05:41;;;;;;;;;;;23.60;99.90;;;;;;5064010;28;19920;-74
2023/08/25 12:08:08;;;;;;;;;;;23.70;99.90;;;;;;5063464;28;19952;-74
2023/08/25 12:10:36;;;;;;;;;;;23.80;99.90;;;;;;5064093;28;19996;-74
2023/08/25 12:13:04;;;;;;;;;;;24.00;99.90;;;;;;5064018;28;19921;-74
2023/08/25 12:15:39;;;;;;;;;;;24.10;99.90;;;;;;5063474;28;19959;-74
2023/08/25 12:18:06;;;;;;;;;;;24.20;99.90;;;;;;5063120;28;20283;-73
2023/08/25 12:20:32;;;;;;;;;;;24.30;99.90;;;;;;5063932;28;19984;-74
2023/08/25 12:23:00;;;;;;;;;;;24.30;99.90;;;;;;5063540;28;19995;-74
2023/08/25 12:25:27;;;;;;;;;;;24.40;99.90;;;;;;5063463;28;20120;-74
2023/08/25 12:27:55;;;;;;;;;;;24.50;99.90;;;;;;5063197;28;19928;-74
2023/08/25 12:30:23;;;;;;;;;;;24.60;99.90;;;;;;5063448;28;20236;-74
2023/08/25 12:32:50;;;;;;;;;;;24.60;99.90;;;;;;5063910;28;19921;-75
2023/08/25 12:35:16;;;;;;;;;;;24.70;99.90;;;;;;5063630;28;19988;-74
2023/08/25 12:37:44;;;;;;;;;;;24.80;99.90;;;;;;5063208;28;19929;-74
2023/08/25 12:40:11;;;;;;;;;;;24.80;99.90;;;;;;5065493;28;19967;-74
2023/08/25 12:42:37;;;;;;;;;;;24.90;99.90;;;;;;5067844;28;19943;-74
2023/08/25 12:45:05;;;;;;;;;;;24.90;99.90;;;;;;5067684;28;19927;-74
2023/08/25 12:47:33;;;;;;;;;;;24.90;99.90;;;;;;5075579;28;19928;-75
2023/08/25 12:50:00;;;;;;;;;;;24.90;99.90;;;;;;5077589;28;19978;-75
2023/08/25 12:52:29;;;;;;;;;;;25.00;99.90;;;;;;5087003;28;20204;-75
2023/08/25 12:54:56;;;;;;;;;;;25.00;99.90;;;;;;5087407;28;19921;-74
2023/08/25 12:57:23;;;;;;;;;;;25.00;99.90;;;;;;5086842;28;20263;-75
2023/08/25 12:59:49;;;;;;;;;;;25.00;99.90;;;;;;5087100;28;19920;-75
2023/08/25 13:02:16;;;;;;;;;;;25.00;99.90;;;;;;5087131;28;20118;-74
2023/08/25 13:04:44;;;;;;;;;;;24.90;99.90;;;;;;5087123;28;20283;-73
2023/08/25 13:07:12;;;;;;;;;;;24.90;99.90;;;;;;5087108;28;19987;-74
2023/08/25 13:09:39;;;;;;;;;;;24.80;99.90;;;;;;5086532;28;20228;-74
2023/08/25 13:12:06;;;;;;;;;;;24.70;99.90;;;;;;5087142;28;19983;-75
2023/08/25 13:14:32;;;;;;;;;;;24.70;99.90;;;;;;5067311;28;19943;-74
2023/08/25 13:17:04;;;;;;;;;;;24.60;99.90;;;;;;5079335;28;19988;-73
2023/08/25 13:19:31;;;;;;;;;;;24.60;99.90;;;;;;5086265;28;19924;-74
2023/08/25 13:21:59;;;;;;;;;;;24.60;99.90;;;;;;5086793;28;19920;-74
2023/08/25 13:24:26;;;;;;;;;;;24.60;99.90;;;;;;5086951;28;19924;-75
2023/08/25 13:26:53;;;;;;;;;;;24.70;99.90;;;;;;5086524;28;19939;-74
2023/08/25 13:29:19;;;;;;;;;;;24.70;99.90;;;;;;5086444;28;19983;-74
2023/08/25 13:31:46;;;;;;;;;;;24.80;99.90;;;;;;5086951;28;19921;-74
2023/08/25 13:34:13;;;;;;;;;;;24.80;99.90;;;;;;5087135;28;20107;-74
2023/08/25 13:36:39;;;;;;;;;;;24.80;99.90;;;;;;5081667;28;19948;-74
2023/08/25 13:39:08;;;;;;;;;;;24.90;99.90;;;;;;5075615;28;19927;-74
2023/08/25 13:41:35;;;;;;;;;;;24.90;99.90;;;;;;5086833;28;19924;-74
2023/08/25 13:44:02;;;;;;;;;;;24.90;99.90;;;;;;5086758;28;19920;-74
2023/08/25 13:46:29;;;;;;;;;;;24.90;99.90;;;;;;5086419;28;19974;-74
2023/08/25 13:48:56;;;;;;;;;;;24.80;99.90;;;;;;5085888;28;19951;-74
2023/08/25 13:51:22;;;;;;;;;;;24.90;99.90;;;;;;5086389;28;19924;-74
2023/08/25 13:53:49;;;;;;;;;;;24.90;99.90;;;;;;5086562;28;19920;-74
2023/08/25 13:56:17;;;;;;;;;;;24.90;99.90;;;;;;5086469;28;19929;-75
2023/08/25 13:58:43;;;;;;;;;;;24.90;99.90;;;;;;5085477;28;19952;-75
2023/08/25 14:01:10;;;;;;;;;;;24.80;99.90;;;;;;5079704;28;20280;-74
2023/08/25 14:03:37;;;;;;;;;;;24.80;99.90;;;;;;5065878;28;19963;-74
2023/08/25 14:06:04;;;;;;;;;;;24.80;99.90;;;;;;5066300;28;19927;-75
2023/08/25 14:08:30;;;;;;;;;;;24.80;99.90;;;;;;5065380;28;20259;-74
2023/08/25 14:10:57;;;;;;;;;;;24.80;99.90;;;;;;5063781;28;19921;-75
2023/08/25 14:13:25;;;;;;;;;;;24.80;99.90;;;;;;5072902;28;19920;-75
2023/08/25 14:18:49;;;;;;;;;;;24.80;99.90;;;;;;5085234;28;19979;-75
2023/08/25 14:21:16;;;;;;;;;;;25.00;99.90;;;;;;5086277;28;19927;-75
2023/08/25 14:23:42;;;;;;;;;;;25.10;99.90;;;;;;5086030;28;19927;-74
2023/08/25 14:26:09;;;;;;;;;;;25.30;99.90;;;;;;5085446;28;20283;-74
2023/08/25 14:28:37;;;;;;;;;;;25.40;99.90;;;;;;5085203;28;19921;-75
2023/08/25 14:31:05;;;;;;;;;;;25.40;99.90;;;;;;5065880;28;19956;-74